Time;durP1;ratioP1;P1;durP2;ratioP2;P2;SDS_P1;SDS_P2;PMS_P1;PMS_P2;Temp;Humidity;BMP_temperature;BMP_pressure;BME280_temperature;BME280_humidity;BME280_pressure;Samples;Min_cycle;Max_cycle;Signal;HPM_P1;HPM_P2
2021/01/01 00:00:01;;;;;;;964.13;666.87;;;1.00;94.00;;;;;;4402660;32;20165;-66
2021/01/01 00:02:32;;;;;;;750.13;531.93;;;1.00;94.00;;;;;;4405380;32;20140;-65
2021/01/01 00:05:05;;;;;;;622.63;424.97;;;1.00;94.40;;;;;;4398658;32;20521;-66
2021/01/01 00:07:31;;;;;;;585.40;396.03;;;1.00;94.00;;;;;;4402994;32;20511;-67
2021/01/01 00:09:58;;;;;;;505.43;326.33;;;1.00;93.90;;;;;;4406030;32;20215;-63
2021/01/01 00:12:27;;;;;;;492.37;301.23;;;0.90;93.80;;;;;;4399212;32;20175;-66
2021/01/01 00:14:53;;;;;;;484.43;312.03;;;0.90;93.80;;;;;;4403604;32;20262;-67
2021/01/01 00:17:27;;;;;;;556.33;382.90;;;0.90;93.80;;;;;;4401625;32;20160;-67
2021/01/01 00:19:57;;;;;;;545.30;360.27;;;0.80;93.80;;;;;;4401585;32;20223;-67
2021/01/01 00:22:23;;;;;;;518.33;340.73;;;0.80;93.80;;;;;;4404272;32;20504;-65
2021/01/01 00:24:54;;;;;;;480.40;303.90;;;0.80;93.80;;;;;;4402730;32;20238;-65
2021/01/01 00:27:22;;;;;;;477.53;296.13;;;0.70;93.80;;;;;;4400509;32;20211;-63
2021/01/01 00:29:53;;;;;;;401.80;221.97;;;0.70;93.80;;;;;;4401870;32;20219;-64
2021/01/01 00:32:21;;;;;;;422.07;229.77;;;0.70;93.80;;;;;;4399577;32;20170;-66
2021/01/01 00:34:52;;;;;;;381.67;213.87;;;0.60;93.80;;;;;;4403094;32;20197;-67
2021/01/01 00:37:26;;;;;;;372.23;205.83;;;0.60;93.80;;;;;;4404075;32;20186;-68
2021/01/01 00:39:59;;;;;;;370.87;199.97;;;0.60;93.80;;;;;;4401726;32;20230;-65
2021/01/01 00:42:37;;;;;;;357.27;195.40;;;0.60;93.80;;;;;;4401345;32;20156;-64
2021/01/01 00:45:11;;;;;;;345.57;179.47;;;0.60;93.80;;;;;;4402637;32;20152;-66
2021/01/01 00:47:42;;;;;;;328.00;181.10;;;0.60;93.80;;;;;;4400627;32;20484;-66
2021/01/01 00:50:17;;;;;;;283.23;149.93;;;0.50;93.80;;;;;;4401542;32;20480;-66
2021/01/01 00:52:45;;;;;;;264.00;141.60;;;0.60;93.80;;;;;;4402781;32;20219;-66
2021/01/01 00:55:11;;;;;;;245.10;129.50;;;0.50;93.80;;;;;;4404102;32;20529;-64
2021/01/01 00:57:45;;;;;;;241.90;125.10;;;0.50;93.80;;;;;;4402090;32;20175;-62
2021/01/01 01:00:24;;;;;;;242.87;126.97;;;0.50;93.80;;;;;;4398691;32;20700;-64
2021/01/01 01:02:59;;;;;;;224.13;123.50;;;0.50;93.80;;;;;;4402077;32;20222;-64
2021/01/01 01:05:28;;;;;;;231.87;121.40;;;0.50;93.90;;;;;;4401566;32;20186;-63
2021/01/01 01:08:00;;;;;;;227.83;122.33;;;0.40;93.80;;;;;;4401670;32;20171;-65
2021/01/01 01:10:28;;;;;;;231.83;124.67;;;0.50;93.90;;;;;;4404573;32;20307;-63
2021/01/01 01:13:03;;;;;;;225.60;120.67;;;0.50;94.10;;;;;;4402807;32;20183;-64
2021/01/01 01:15:31;;;;;;;222.40;116.37;;;0.50;94.20;;;;;;4397005;32;20215;-64
2021/01/01 01:18:08;;;;;;;217.93;113.47;;;0.50;94.40;;;;;;4397480;32;20171;-63
2021/01/01 01:20:37;;;;;;;226.17;114.33;;;0.50;94.50;;;;;;4399512;32;20230;-66
2021/01/01 01:23:06;;;;;;;210.27;115.13;;;0.50;94.50;;;;;;4400990;32;20211;-65
2021/01/01 01:25:33;;;;;;;218.23;115.67;;;0.50;94.50;;;;;;4397827;32;20163;-64
2021/01/01 01:28:02;;;;;;;215.73;117.83;;;0.50;94.50;;;;;;4400166;32;20169;-66
2021/01/01 01:30:29;;;;;;;220.07;116.90;;;0.50;94.60;;;;;;4401561;32;20585;-62
2021/01/01 01:32:57;;;;;;;234.80;122.27;;;0.50;94.70;;;;;;4404141;32;20178;-63
2021/01/01 01:35:25;;;;;;;225.67;119.70;;;0.50;95.00;;;;;;4399856;32;20223;-66
2021/01/01 01:37:54;;;;;;;234.53;122.97;;;0.50;95.00;;;;;;4398194;32;20172;-67
2021/01/01 01:40:26;;;;;;;247.90;131.30;;;0.50;95.00;;;;;;4398795;32;20199;-65
2021/01/01 01:42:57;;;;;;;242.53;128.97;;;0.50;95.00;;;;;;4400262;32;20205;-65
2021/01/01 01:45:24;;;;;;;260.40;139.27;;;0.50;95.00;;;;;;4402744;32;20144;-67
2021/01/01 01:47:54;;;;;;;253.07;136.57;;;0.50;95.00;;;;;;4405224;32;20226;-66
2021/01/01 01:50:31;;;;;;;246.33;132.37;;;0.40;95.00;;;;;;4401650;32;20238;-63
2021/01/01 01:52:58;;;;;;;257.23;132.73;;;0.40;94.90;;;;;;4404400;32;20220;-65
2021/01/01 01:55:30;;;;;;;250.17;136.40;;;0.40;94.70;;;;;;4404013;32;20144;-67
2021/01/01 01:58:05;;;;;;;264.17;139.40;;;0.30;94.40;;;;;;4405294;32;20180;-65
2021/01/01 02:00:57;;;;;;;267.57;142.73;;;0.30;94.30;;;;;;4399686;32;20249;-65
2021/01/01 02:03:27;;;;;;;278.80;144.97;;;0.30;94.20;;;;;;4405705;32;20199;-67
2021/01/01 02:06:00;;;;;;;261.70;146.23;;;0.30;94.20;;;;;;4404554;32;20254;-65
2021/01/01 02:08:27;;;;;;;264.97;138.90;;;0.30;94.20;;;;;;4403443;32;20471;-65
2021/01/01 02:10:59;;;;;;;262.90;140.13;;;0.20;94.20;;;;;;4403776;32;20211;-62
2021/01/01 02:13:27;;;;;;;272.03;147.97;;;0.20;94.20;;;;;;4404346;32;20698;-64
2021/01/01 02:16:00;;;;;;;283.97;150.60;;;0.20;94.20;;;;;;4400383;32;20164;-65
2021/01/01 02:18:39;;;;;;;280.40;143.27;;;0.20;94.20;;;;;;4401248;32;20156;-67
2021/01/01 02:21:21;;;;;;;278.63;150.67;;;0.20;94.20;;;;;;4403059;32;20175;-64
2021/01/01 02:23:50;;;;;;;286.27;151.90;;;0.20;94.20;;;;;;4405471;32;20271;-66
2021/01/01 02:26:18;;;;;;;281.23;151.40;;;0.30;94.40;;;;;;4406703;32;20172;-65
2021/01/01 02:28:47;;;;;;;275.57;152.63;;;0.40;94.60;;;;;;4405360;32;20156;-66
2021/01/01 02:31:17;;;;;;;309.40;160.10;;;0.40;94.40;;;;;;4405822;32;20287;-64
2021/01/01 02:33:45;;;;;;;308.97;165.77;;;0.30;94.20;;;;;;4405921;32;20767;-65
2021/01/01 02:36:14;;;;;;;284.53;156.37;;;0.40;94.30;;;;;;4404231;32;20656;-64
2021/01/01 02:38:46;;;;;;;325.03;173.77;;;0.40;94.40;;;;;;4403151;32;20215;-66
2021/01/01 02:41:20;;;;;;;308.07;165.13;;;0.40;94.50;;;;;;4398995;32;20202;-63
2021/01/01 02:43:53;;;;;;;304.10;165.50;;;0.50;94.60;;;;;;4402007;32;20644;-65
2021/01/01 02:46:22;;;;;;;314.90;167.13;;;0.50;94.60;;;;;;4399657;32;20562;-68
2021/01/01 02:48:55;;;;;;;321.83;169.20;;;0.60;94.80;;;;;;4400438;32;20212;-65
2021/01/01 02:51:21;;;;;;;318.87;170.40;;;0.70;94.90;;;;;;4401232;32;20247;-64
2021/01/01 02:53:50;;;;;;;313.07;174.40;;;0.70;94.90;;;;;;4403594;32;20249;-66
2021/01/01 02:56:25;;;;;;;306.73;166.23;;;0.80;95.00;;;;;;4398894;32;20239;-62
2021/01/01 02:58:53;;;;;;;311.90;174.50;;;0.90;95.00;;;;;;4399555;32;20160;-65
2021/01/01 03:01:28;;;;;;;312.13;170.73;;;0.90;94.90;;;;;;4398353;32;20567;-65
2021/01/01 03:03:57;;;;;;;315.63;169.70;;;0.80;94.80;;;;;;4402450;32;20155;-63
2021/01/01 03:06:24;;;;;;;310.73;170.27;;;0.90;94.80;;;;;;4398571;32;20665;-65
2021/01/01 03:08:55;;;;;;;306.47;170.33;;;0.90;94.80;;;;;;4401756;32;20183;-66
2021/01/01 03:11:22;;;;;;;314.70;175.97;;;1.00;94.90;;;;;;4398647;32;20485;-65
2021/01/01 03:13:58;;;;;;;318.37;175.40;;;1.00;94.90;;;;;;4399397;32;20298;-68
2021/01/01 03:16:26;;;;;;;347.13;192.43;;;1.00;94.90;;;;;;4402311;32;20195;-64
2021/01/01 03:18:55;;;;;;;354.10;195.83;;;1.00;94.90;;;;;;4401999;32;20711;-66
2021/01/01 03:21:21;;;;;;;336.40;194.13;;;1.10;94.90;;;;;;4400961;32;20206;-66
2021/01/01 03:23:51;;;;;;;335.20;194.07;;;1.20;94.80;;;;;;4402766;32;20199;-68
2021/01/01 03:26:31;;;;;;;341.53;195.20;;;1.10;94.70;;;;;;4400998;32;20626;-64
2021/01/01 03:29:01;;;;;;;328.67;186.13;;;1.10;94.70;;;;;;4398905;32;20167;-65
2021/01/01 03:31:31;;;;;;;345.87;196.07;;;1.20;94.70;;;;;;4403023;32;20155;-66
2021/01/01 03:34:03;;;;;;;338.50;187.13;;;1.20;94.60;;;;;;4401866;32;20182;-65
2021/01/01 03:36:31;;;;;;;363.27;202.33;;;1.20;94.60;;;;;;4402457;32;21393;-64
2021/01/01 03:38:58;;;;;;;360.73;197.60;;;1.30;94.60;;;;;;4400402;32;20152;-66
2021/01/01 03:41:32;;;;;;;345.97;191.40;;;1.30;94.60;;;;;;4400635;32;20616;-63
2021/01/01 03:44:01;;;;;;;346.17;186.97;;;1.30;94.50;;;;;;4401583;32;20189;-64
2021/01/01 03:46:29;;;;;;;366.07;195.03;;;1.30;94.50;;;;;;4402367;32;20275;-67
2021/01/01 03:48:58;;;;;;;353.77;194.17;;;1.40;94.40;;;;;;4401929;32;20229;-65
2021/01/01 03:51:28;;;;;;;335.87;183.27;;;1.40;94.40;;;;;;4403241;32;20265;-64
2021/01/01 03:54:00;;;;;;;338.67;177.50;;;1.40;94.40;;;;;;4402927;32;20164;-65
2021/01/01 03:56:34;;;;;;;332.70;180.40;;;1.40;94.40;;;;;;4399888;32;20156;-66
2021/01/01 03:59:00;;;;;;;341.07;174.50;;;1.40;94.40;;;;;;4401116;32;20166;-66
2021/01/01 04:01:37;;;;;;;390.20;198.43;;;1.50;94.40;;;;;;4404685;32;20265;-64
2021/01/01 04:04:11;;;;;;;323.73;170.80;;;1.40;94.30;;;;;;4402154;32;20282;-65
2021/01/01 04:06:42;;;;;;;336.97;176.37;;;1.40;94.30;;;;;;4402672;32;20584;-64
2021/01/01 04:09:11;;;;;;;319.70;168.77;;;1.40;94.20;;;;;;4401415;32;20149;-65
2021/01/01 04:11:46;;;;;;;299.70;162.93;;;1.40;94.20;;;;;;4402317;32;20215;-66
2021/01/01 04:14:17;;;;;;;317.77;167.60;;;1.40;94.20;;;;;;4402117;32;20304;-67
2021/01/01 04:16:44;;;;;;;297.50;157.80;;;1.40;94.20;;;;;;4403603;32;20595;-67
2021/01/01 04:19:16;;;;;;;315.13;166.20;;;1.40;94.30;;;;;;4400709;32;20263;-64
2021/01/01 04:21:48;;;;;;;297.90;159.77;;;1.40;94.30;;;;;;4402536;32;20603;-64
2021/01/01 04:24:22;;;;;;;320.03;163.37;;;1.30;94.30;;;;;;4403524;32;20882;-65
2021/01/01 04:26:49;;;;;;;303.80;157.17;;;1.40;94.30;;;;;;4400786;32;20526;-64
2021/01/01 04:29:21;;;;;;;291.23;156.40;;;1.40;94.30;;;;;;4402809;32;20643;-65
2021/01/01 04:31:48;;;;;;;306.47;155.57;;;1.40;94.30;;;;;;4401839;32;20210;-66
2021/01/01 04:34:14;;;;;;;302.97;154.90;;;1.40;94.30;;;;;;4401522;32;20558;-65
2021/01/01 04:36:47;;;;;;;290.80;155.23;;;1.40;94.30;;;;;;4402605;32;20231;-65
2021/01/01 04:39:23;;;;;;;287.00;149.10;;;1.40;94.30;;;;;;4401541;32;20151;-66
2021/01/01 04:41:54;;;;;;;301.87;149.83;;;1.40;94.30;;;;;;4401741;32;20182;-65
2021/01/01 04:44:22;;;;;;;296.83;150.97;;;1.40;94.30;;;;;;4403015;32;20219;-63
2021/01/01 04:46:52;;;;;;;291.77;148.83;;;1.40;94.30;;;;;;4404269;32;20219;-66
2021/01/01 04:49:20;;;;;;;274.60;141.10;;;1.40;94.30;;;;;;4399817;32;20242;-63
2021/01/01 04:51:52;;;;;;;300.97;147.47;;;1.40;94.30;;;;;;4401307;32;20159;-65
2021/01/01 04:54:29;;;;;;;259.53;139.23;;;1.40;94.30;;;;;;4402184;32;20175;-63
2021/01/01 04:57:00;;;;;;;283.47;143.13;;;1.40;94.30;;;;;;4403275;32;20159;-63
2021/01/01 04:59:34;;;;;;;269.67;137.73;;;1.40;94.30;;;;;;4403547;32;20219;-66
2021/01/01 05:02:05;;;;;;;263.60;135.27;;;1.40;94.30;;;;;;4402911;32;20159;-65
2021/01/01 05:04:40;;;;;;;263.37;132.93;;;1.40;94.30;;;;;;4396788;32;20254;-64
2021/01/01 05:07:06;;;;;;;256.23;132.50;;;1.40;94.30;;;;;;4400843;32;20175;-66
2021/01/01 05:09:32;;;;;;;256.83;131.63;;;1.40;94.30;;;;;;4401857;32;20474;-65
2021/01/01 05:12:14;;;;;;;261.73;132.30;;;1.40;94.40;;;;;;4402605;32;20214;-63
2021/01/01 05:14:47;;;;;;;243.77;127.40;;;1.40;94.30;;;;;;4400563;32;20244;-66
2021/01/01 05:17:21;;;;;;;239.90;129.27;;;1.50;94.40;;;;;;4402369;32;20155;-65
2021/01/01 05:20:10;;;;;;;248.17;127.97;;;1.50;94.40;;;;;;4398557;32;20171;-66
2021/01/01 05:22:40;;;;;;;247.57;128.23;;;1.50;94.30;;;;;;4404586;32;20190;-64
2021/01/01 05:25:21;;;;;;;253.93;127.97;;;1.50;94.40;;;;;;4404804;32;20237;-63
2021/01/01 05:28:08;;;;;;;247.80;130.67;;;1.50;94.40;;;;;;4406256;32;20470;-67
2021/01/01 05:30:44;;;;;;;243.73;126.57;;;1.50;94.40;;;;;;4403463;32;20159;-65
2021/01/01 05:33:17;;;;;;;243.30;126.57;;;1.50;94.40;;;;;;4404226;32;20223;-66
2021/01/01 05:35:51;;;;;;;234.47;124.80;;;1.50;94.40;;;;;;4406195;32;20178;-67
2021/01/01 05:38:22;;;;;;;240.63;125.90;;;1.50;94.40;;;;;;4406891;32;20164;-64
2021/01/01 05:40:52;;;;;;;252.03;130.37;;;1.50;94.40;;;;;;4403892;32;20239;-67
2021/01/01 05:43:25;;;;;;;222.40;122.77;;;1.50;94.40;;;;;;4404094;32;20276;-67
2021/01/01 05:45:51;;;;;;;225.00;119.30;;;1.40;94.30;;;;;;4400860;32;20191;-65
2021/01/01 05:48:27;;;;;;;222.87;121.17;;;1.40;94.30;;;;;;4403620;32;20228;-64
2021/01/01 05:51:05;;;;;;;213.73;115.07;;;1.40;94.30;;;;;;4405090;32;20214;-64
2021/01/01 05:53:41;;;;;;;210.77;112.80;;;1.40;94.30;;;;;;4405614;32;20223;-66
2021/01/01 05:56:13;;;;;;;211.17;108.00;;;1.30;94.20;;;;;;4401849;32;20453;-64
2021/01/01 05:58:42;;;;;;;211.80;111.40;;;1.30;94.30;;;;;;4405249;32;20179;-65
2021/01/01 06:01:10;;;;;;;206.17;111.93;;;1.30;94.30;;;;;;4402412;32;20561;-67
2021/01/01 06:03:49;;;;;;;209.50;109.70;;;1.30;94.30;;;;;;4405855;32;20557;-64
2021/01/01 06:06:30;;;;;;;215.13;112.40;;;1.30;94.30;;;;;;4404443;32;20499;-65
2021/01/01 06:09:19;;;;;;;225.77;113.80;;;1.30;94.30;;;;;;4404514;32;20223;-64
2021/01/01 06:11:59;;;;;;;195.90;105.63;;;1.30;94.30;;;;;;4405905;32;20156;-66
2021/01/01 06:14:49;;;;;;;200.00;101.37;;;1.30;94.40;;;;;;4399208;32;20228;-60
2021/01/01 06:17:22;;;;;;;196.07;103.47;;;1.30;94.40;;;;;;4393379;32;20168;-63
2021/01/01 06:19:51;;;;;;;203.40;105.77;;;1.30;94.30;;;;;;4393000;32;20209;-62
2021/01/01 06:22:19;;;;;;;200.20;104.57;;;1.30;94.30;;;;;;4388407;32;20223;-63
2021/01/01 06:24:48;;;;;;;209.50;109.90;;;1.30;94.30;;;;;;4391340;32;20160;-63
2021/01/01 06:27:15;;;;;;;198.17;105.17;;;1.30;94.30;;;;;;4391641;32;20155;-63
2021/01/01 06:29:53;;;;;;;206.13;106.50;;;1.20;94.30;;;;;;4393153;32;20279;-64
2021/01/01 06:32:24;;;;;;;202.87;106.60;;;1.20;94.30;;;;;;4396321;32;20540;-67
2021/01/01 06:34:55;;;;;;;206.63;108.20;;;1.30;94.40;;;;;;4388939;32;20608;-65
2021/01/01 06:37:42;;;;;;;191.37;102.20;;;1.30;94.40;;;;;;4390027;32;20301;-64
2021/01/01 06:40:43;;;;;;;201.27;108.43;;;1.20;94.40;;;;;;4389452;32;20191;-67
2021/01/01 06:43:19;;;;;;;209.00;108.90;;;1.20;94.40;;;;;;4395617;32;20277;-63
2021/01/01 06:45:47;;;;;;;220.47;111.00;;;1.20;94.40;;;;;;4399722;32;20163;-62
2021/01/01 06:48:40;;;;;;;204.93;109.80;;;1.20;94.40;;;;;;4390272;32;20271;-63
2021/01/01 06:51:15;;;;;;;198.87;104.30;;;1.20;94.60;;;;;;4390663;32;20206;-63
2021/01/01 06:53:48;;;;;;;206.00;108.00;;;1.20;94.30;;;;;;4387241;32;20160;-62
2021/01/01 06:56:20;;;;;;;207.10;106.77;;;1.10;94.30;;;;;;4395977;32;20181;-63
2021/01/01 07:01:39;;;;;;;201.03;106.20;;;1.10;94.30;;;;;;4389466;32;20169;-63
2021/01/01 07:04:06;;;;;;;183.10;97.90;;;1.10;94.40;;;;;;4386071;32;20184;-63
2021/01/01 07:06:49;;;;;;;199.93;106.57;;;1.10;94.40;;;;;;4392924;32;20245;-63
2021/01/01 07:09:40;;;;;;;198.43;105.80;;;1.10;94.50;;;;;;4393952;32;20512;-62
2021/01/01 07:12:17;;;;;;;200.17;103.33;;;1.20;94.60;;;;;;4392632;32;20201;-63
2021/01/01 07:14:52;;;;;;;194.67;103.37;;;1.30;94.70;;;;;;4389398;32;20171;-63
2021/01/01 07:17:26;;;;;;;188.63;100.47;;;1.30;94.80;;;;;;4085859;32;20551;-65
2021/01/01 07:19:57;;;;;;;200.40;102.23;;;1.40;94.90;;;;;;4384690;32;21334;-64
2021/01/01 07:22:31;;;;;;;188.33;96.40;;;1.50;94.90;;;;;;4387556;32;20238;-67
2021/01/01 07:25:11;;;;;;;186.00;98.70;;;1.50;94.80;;;;;;4387202;32;20224;-65
2021/01/01 07:27:39;;;;;;;181.43;97.83;;;1.50;94.80;;;;;;4387818;32;20223;-63
2021/01/01 07:30:37;;;;;;;177.97;95.63;;;1.60;94.90;;;;;;4388940;32;20268;-64
2021/01/01 07:33:08;;;;;;;176.53;91.60;;;1.60;95.00;;;;;;4385472;32;20360;-67
2021/01/01 07:35:55;;;;;;;172.83;94.83;;;1.70;94.90;;;;;;4387895;32;20482;-65
2021/01/01 07:38:23;;;;;;;169.57;89.03;;;1.70;94.90;;;;;;4385586;32;20233;-63
2021/01/01 07:40:56;;;;;;;175.37;92.30;;;1.70;94.90;;;;;;4386600;32;20215;-66
2021/01/01 07:43:34;;;;;;;165.10;89.00;;;1.70;94.90;;;;;;4384762;32;20464;-64
2021/01/01 07:46:20;;;;;;;158.00;89.63;;;1.70;94.90;;;;;;4387233;32;20184;-67
2021/01/01 07:48:56;;;;;;;173.80;88.00;;;1.80;94.90;;;;;;4385067;32;20231;-63
2021/01/01 07:51:26;;;;;;;169.53;87.63;;;1.80;94.90;;;;;;4386126;32;20588;-65
2021/01/01 07:54:01;;;;;;;158.73;84.27;;;1.80;94.90;;;;;;4385309;32;20215;-64
2021/01/01 07:56:36;;;;;;;155.63;83.67;;;1.80;95.00;;;;;;4382996;32;20156;-64
2021/01/01 07:59:05;;;;;;;175.67;86.57;;;1.90;95.00;;;;;;4385303;32;20208;-67
2021/01/01 08:01:39;;;;;;;159.80;81.67;;;1.90;95.00;;;;;;4389159;32;20570;-62
2021/01/01 08:04:16;;;;;;;137.67;75.43;;;2.00;95.10;;;;;;4388115;32;20227;-64
2021/01/01 08:06:55;;;;;;;135.10;70.47;;;2.00;95.00;;;;;;4382710;32;20580;-65
2021/01/01 08:09:24;;;;;;;117.43;65.97;;;2.00;95.10;;;;;;4385900;32;20256;-65
2021/01/01 08:12:06;;;;;;;118.70;61.30;;;2.00;95.10;;;;;;4386150;32;20278;-68
2021/01/01 08:14:57;;;;;;;107.80;54.00;;;2.10;95.10;;;;;;4386249;32;20204;-65
2021/01/01 08:17:32;;;;;;;100.97;53.47;;;2.10;95.10;;;;;;4383296;32;20207;-66
2021/01/01 08:20:21;;;;;;;92.20;47.83;;;2.10;95.00;;;;;;4386325;32;20155;-67
2021/01/01 08:22:48;;;;;;;83.53;44.57;;;2.10;95.00;;;;;;4387194;32;20585;-68
2021/01/01 08:25:19;;;;;;;79.67;41.70;;;2.10;95.00;;;;;;4388363;32;20577;-68
2021/01/01 08:27:48;;;;;;;74.13;41.80;;;2.10;95.00;;;;;;4388153;32;20244;-64
2021/01/01 08:30:17;;;;;;;71.10;39.47;;;2.20;95.10;;;;;;4389168;32;20171;-66
2021/01/01 08:32:44;;;;;;;68.53;37.93;;;2.10;95.00;;;;;;4387796;32;20255;-69
2021/01/01 08:35:19;;;;;;;78.77;42.80;;;2.20;95.10;;;;;;4387653;32;20157;-65
2021/01/01 08:37:57;;;;;;;;;;;;;;;;;;;;;
2021/01/01 08:40:24;;;;;;;82.60;44.47;;;2.30;95.60;;;;;;4386752;32;20595;-65
2021/01/01 08:42:57;;;;;;;75.00;42.13;;;2.40;95.30;;;;;;4388279;32;20219;-67
2021/01/01 08:45:34;;;;;;;69.50;38.77;;;2.50;95.40;;;;;;4390256;32;20569;-67
2021/01/01 08:48:15;;;;;;;66.57;36.93;;;2.50;95.50;;;;;;4388233;32;20159;-65
2021/01/01 08:50:49;;;;;;;64.80;35.70;;;2.50;95.40;;;;;;4385864;32;20214;-64
2021/01/01 08:53:22;;;;;;;68.07;35.97;;;2.60;95.50;;;;;;4386977;32;20179;-64
2021/01/01 08:56:06;;;;;;;58.77;33.30;;;2.70;95.70;;;;;;4386836;32;20164;-64
2021/01/01 08:58:42;;;;;;;57.00;33.97;;;2.80;95.70;;;;;;4387304;32;20231;-64
2021/01/01 09:01:27;;;;;;;55.53;31.93;;;2.80;95.70;;;;;;4386148;32;20223;-65
2021/01/01 09:04:04;;;;;;;50.03;30.10;;;2.90;95.70;;;;;;4388307;32;20213;-63
2021/01/01 09:06:48;;;;;;;51.97;30.00;;;3.00;95.70;;;;;;4388051;32;20664;-64
2021/01/01 09:09:24;;;;;;;47.07;27.70;;;3.00;95.70;;;;;;4387741;32;20217;-66
2021/01/01 09:11:53;;;;;;;45.77;25.87;;;3.10;95.80;;;;;;4387524;32;20186;-66
2021/01/01 09:14:23;;;;;;;44.63;25.70;;;3.20;95.80;;;;;;4388320;32;20661;-67
2021/01/01 09:17:13;;;;;;;48.47;28.23;;;3.20;95.80;;;;;;4400597;32;20171;-65
2021/01/01 09:19:41;;;;;;;46.13;28.47;;;3.30;95.70;;;;;;4396636;32;20190;-65
2021/01/01 09:22:24;;;;;;;45.13;29.77;;;3.30;95.70;;;;;;4402967;32;20576;-67
2021/01/01 09:24:50;;;;;;;43.03;27.33;;;3.40;95.70;;;;;;4402284;32;20182;-64
2021/01/01 09:27:22;;;;;;;50.90;27.97;;;3.40;95.70;;;;;;4400025;32;20172;-64
2021/01/01 09:30:01;;;;;;;38.00;23.00;;;3.50;95.80;;;;;;4400557;32;20631;-64
2021/01/01 09:32:29;;;;;;;39.83;22.80;;;3.50;95.80;;;;;;4401679;32;20249;-64
2021/01/01 09:35:00;;;;;;;36.93;19.77;;;3.60;95.80;;;;;;4403526;32;20208;-64
2021/01/01 09:37:28;;;;;;;31.30;19.33;;;3.70;95.90;;;;;;4398567;32;20211;-64
2021/01/01 09:40:04;;;;;;;29.63;19.00;;;3.80;96.00;;;;;;4401301;32;20164;-67
2021/01/01 09:42:48;;;;;;;31.93;18.13;;;3.90;96.00;;;;;;4399292;32;20234;-63
2021/01/01 09:45:26;;;;;;;26.73;16.87;;;3.90;96.10;;;;;;4400353;32;20147;-64
2021/01/01 09:47:56;;;;;;;26.27;14.93;;;4.00;96.00;;;;;;4401297;32;20674;-64
2021/01/01 09:50:32;;;;;;;24.77;15.83;;;4.10;96.00;;;;;;4402163;32;20215;-64
2021/01/01 09:53:06;;;;;;;23.57;15.10;;;4.20;96.20;;;;;;4402063;32;20194;-63
2021/01/01 09:55:32;;;;;;;25.13;15.40;;;4.30;96.40;;;;;;4400695;32;20264;-63
2021/01/01 09:58:01;;;;;;;22.77;13.83;;;4.40;96.50;;;;;;4402728;32;20228;-64
2021/01/01 10:00:33;;;;;;;22.40;13.00;;;4.50;96.00;;;;;;4399660;32;20239;-63
2021/01/01 10:03:13;;;;;;;22.43;13.10;;;4.40;95.60;;;;;;4402674;32;20222;-64
2021/01/01 10:05:40;;;;;;;23.47;14.30;;;4.40;95.40;;;;;;4401548;32;20522;-63
2021/01/01 10:08:09;;;;;;;21.67;13.10;;;4.40;95.40;;;;;;4404242;32;20163;-63
2021/01/01 10:10:36;;;;;;;18.27;12.47;;;4.40;95.40;;;;;;4401922;32;20300;-63
2021/01/01 10:13:05;;;;;;;21.03;13.37;;;4.40;95.30;;;;;;4404387;32;20503;-65
2021/01/01 10:15:44;;;;;;;17.57;10.97;;;4.40;95.30;;;;;;4401594;32;20207;-64
2021/01/01 10:18:12;;;;;;;14.13;10.83;;;4.40;95.30;;;;;;4400196;32;20222;-64
2021/01/01 10:20:54;;;;;;;23.57;14.57;;;4.40;95.30;;;;;;4398798;32;20218;-64
2021/01/01 10:23:25;;;;;;;16.73;12.20;;;4.40;95.20;;;;;;4400162;32;20159;-65
2021/01/01 10:25:52;;;;;;;21.77;12.00;;;4.40;95.30;;;;;;4403861;32;20196;-63
2021/01/01 10:28:21;;;;;;;23.07;13.20;;;4.40;94.80;;;;;;4404960;32;20208;-65
2021/01/01 10:30:47;;;;;;;21.73;13.03;;;4.40;94.80;;;;;;4405113;32;20179;-63
2021/01/01 10:33:17;;;;;;;17.97;11.87;;;4.40;94.60;;;;;;4404208;32;20591;-65
2021/01/01 10:35:43;;;;;;;20.03;12.87;;;4.40;94.60;;;;;;4404342;32;20227;-65
2021/01/01 10:38:13;;;;;;;19.97;12.37;;;4.30;94.70;;;;;;4404667;32;20245;-66
2021/01/01 10:40:45;;;;;;;18.40;11.37;;;4.40;94.80;;;;;;4405077;32;20491;-66
2021/01/01 10:43:11;;;;;;;17.67;10.70;;;4.50;94.90;;;;;;4402666;32;20237;-66
2021/01/01 10:45:37;;;;;;;17.97;11.13;;;4.60;95.10;;;;;;4404599;32;20156;-65
2021/01/01 10:48:05;;;;;;;15.60;10.27;;;4.80;95.10;;;;;;4407014;32;20183;-66
2021/01/01 10:50:36;;;;;;;17.73;11.13;;;4.90;95.10;;;;;;4403917;32;20556;-65
2021/01/01 10:53:02;;;;;;;17.70;10.57;;;5.00;95.00;;;;;;4404685;32;20190;-65
2021/01/01 10:55:41;;;;;;;17.80;10.43;;;5.10;95.20;;;;;;4404617;32;20230;-67
2021/01/01 10:58:23;;;;;;;13.53;8.97;;;5.20;95.10;;;;;;4403502;32;20215;-66
2021/01/01 11:00:51;;;;;;;12.90;9.37;;;5.30;94.80;;;;;;4402399;32;20249;-65
2021/01/01 11:03:19;;;;;;;16.00;10.43;;;5.30;94.60;;;;;;4399371;32;20155;-64
2021/01/01 11:05:48;;;;;;;13.93;10.03;;;5.40;94.50;;;;;;4400184;32;20174;-64
2021/01/01 11:08:19;;;;;;;14.80;10.23;;;5.40;94.50;;;;;;4401345;32;20177;-69
2021/01/01 11:10:52;;;;;;;15.37;9.57;;;5.60;94.50;;;;;;4402663;32;20178;-66
2021/01/01 11:13:30;;;;;;;13.17;9.43;;;5.60;94.30;;;;;;4402656;32;20226;-63
2021/01/01 12:20:54;;;;;;;19.73;10.17;;;6.10;91.20;;;;;;4404633;32;20499;-66
2021/01/01 12:23:39;;;;;;;16.63;11.27;;;6.30;90.60;;;;;;4396243;32;20191;-64
2021/01/01 12:26:11;;;;;;;14.07;10.97;;;6.40;90.70;;;;;;4397224;32;20211;-64
2021/01/01 12:28:40;;;;;;;12.97;9.43;;;6.50;90.50;;;;;;4401209;32;20152;-64
2021/01/01 12:31:14;;;;;;;12.97;9.97;;;6.60;90.30;;;;;;4404366;32;20167;-64
2021/01/01 12:33:52;;;;;;;11.10;8.80;;;6.50;90.20;;;;;;4404291;32;20164;-65
2021/01/01 12:36:24;;;;;;;13.23;9.80;;;6.40;90.40;;;;;;4404166;32;20155;-68
2021/01/01 12:38:53;;;;;;;14.37;8.67;;;6.40;90.40;;;;;;4403765;32;20144;-63
2021/01/01 12:44:15;;;;;;;14.07;9.63;;;6.30;90.80;;;;;;4390460;32;20243;-67
2021/01/01 12:46:42;;;;;;;15.50;10.70;;;6.30;91.20;;;;;;4404162;32;20172;-63
2021/01/01 12:52:16;;;;;;;14.30;9.73;;;6.20;90.70;;;;;;4401009;32;20217;-63
2021/01/01 12:54:51;;;;;;;16.63;10.57;;;6.10;91.20;;;;;;4399210;32;20147;-63
2021/01/01 12:57:32;;;;;;;14.20;9.57;;;6.10;91.20;;;;;;4400700;32;20177;-66
2021/01/01 13:00:01;;;;;;;17.83;11.70;;;6.10;91.10;;;;;;4397912;32;20535;-61
2021/01/01 13:02:29;;;;;;;16.43;10.53;;;6.10;91.10;;;;;;4398405;32;20223;-64
2021/01/01 13:05:04;;;;;;;17.13;10.80;;;6.10;91.40;;;;;;4399506;32;20197;-66
2021/01/01 13:07:45;;;;;;;17.33;10.43;;;6.10;91.40;;;;;;4402617;32;20155;-64
2021/01/01 13:10:12;;;;;;;15.23;11.30;;;6.10;91.40;;;;;;4399392;32;20173;-63
2021/01/01 13:12:44;;;;;;;17.93;11.03;;;6.30;91.40;;;;;;4401323;32;20154;-64
2021/01/01 13:15:13;;;;;;;17.07;10.83;;;6.20;91.40;;;;;;4398516;32;20637;-64
2021/01/01 13:17:42;;;;;;;17.93;11.97;;;6.20;91.40;;;;;;4397186;32;20186;-64
2021/01/01 13:20:15;;;;;;;20.70;12.50;;;6.30;91.50;;;;;;4399857;32;20511;-65
2021/01/01 13:22:45;;;;;;;15.53;11.03;;;6.30;91.40;;;;;;4396954;32;20570;-63
2021/01/01 13:25:20;;;;;;;19.70;11.80;;;6.30;91.20;;;;;;4399069;32;20183;-63
2021/01/01 13:27:48;;;;;;;22.10;10.90;;;6.40;91.30;;;;;;4396252;32;20485;-64
2021/01/01 13:30:23;;;;;;;18.00;10.00;;;6.50;91.30;;;;;;4394211;32;20156;-65
2021/01/01 13:32:54;;;;;;;18.73;10.43;;;6.40;91.20;;;;;;4396221;32;20208;-63
2021/01/01 13:35:24;;;;;;;27.10;12.10;;;6.50;91.20;;;;;;4397072;32;20168;-64
2021/01/01 13:38:10;;;;;;;17.33;10.93;;;6.40;90.90;;;;;;4398657;32;20618;-66
2021/01/01 13:40:39;;;;;;;16.33;9.67;;;6.40;91.10;;;;;;4396337;32;20592;-64
2021/01/01 13:43:11;;;;;;;20.40;10.87;;;6.50;91.20;;;;;;4398980;32;20223;-64
2021/01/01 13:45:41;;;;;;;17.70;10.67;;;6.60;90.90;;;;;;4401821;32;20152;-64
2021/01/01 13:48:11;;;;;;;23.77;11.63;;;6.40;90.90;;;;;;4396824;32;20215;-66
2021/01/01 13:50:45;;;;;;;16.93;11.17;;;6.40;91.20;;;;;;4397608;32;20234;-64
2021/01/01 13:53:15;;;;;;;15.77;9.77;;;6.40;91.20;;;;;;4400297;32;20197;-67
2021/01/01 13:55:41;;;;;;;16.20;10.37;;;6.40;91.20;;;;;;4404525;32;20180;-66
2021/01/01 13:58:10;;;;;;;17.40;10.47;;;6.40;91.00;;;;;;4401613;32;20168;-66
2021/01/01 14:00:40;;;;;;;15.27;10.13;;;6.40;91.00;;;;;;4396671;32;20727;-66
2021/01/01 14:03:15;;;;;;;18.83;9.63;;;6.40;90.80;;;;;;4395374;32;20143;-67
2021/01/01 14:06:06;;;;;;;14.30;9.17;;;6.30;90.70;;;;;;4397107;32;20235;-63